sensor_id;sensor_type;location;lat;lon;timestamp;P1;durP1;ratioP1;P2;durP2;ratioP2
16063;SDS011;8136;53.172;8.256;2023-03-30T00:25:58;17.07;;;13.83;;
16063;SDS011;8136;53.172;8.256;2023-03-30T05:50:01;5.90;;;3.10;;
16063;SDS011;8136;53.172;8.256;2023-03-30T05:52:30;6.27;;;2.83;;
16063;SDS011;8136;53.172;8.256;2023-03-30T05:55:00;4.60;;;2.87;;
16063;SDS011;8136;53.172;8.256;2023-03-30T05:57:32;4.53;;;2.67;;
16063;SDS011;8136;53.172;8.256;2023-03-30T06:00:08;6.13;;;3.30;;
16063;SDS011;8136;53.172;8.256;2023-03-30T06:02:41;4.73;;;2.93;;
16063;SDS011;8136;53.172;8.256;2023-03-30T06:05:10;4.80;;;2.83;;
16063;SDS011;8136;53.172;8.256;2023-03-30T06:07:37;5.83;;;3.27;;
16063;SDS011;8136;53.172;8.256;2023-03-30T06:10:04;6.37;;;3.20;;
16063;SDS011;8136;53.172;8.256;2023-03-30T06:12:32;4.77;;;3.10;;
16063;SDS011;8136;53.172;8.256;2023-03-30T06:15:06;5.60;;;2.90;;
16063;SDS011;8136;53.172;8.256;2023-03-30T06:17:34;4.63;;;3.00;;
16063;SDS011;8136;53.172;8.256;2023-03-30T06:20:01;4.77;;;3.33;;
16063;SDS011;8136;53.172;8.256;2023-03-30T07:06:24;6.67;;;2.80;;
16063;SDS011;8136;53.172;8.256;2023-03-30T07:09:01;5.53;;;2.70;;
16063;SDS011;8136;53.172;8.256;2023-03-30T07:11:29;6.37;;;2.33;;
16063;SDS011;8136;53.172;8.256;2023-03-30T07:13:59;4.33;;;2.70;;
16063;SDS011;8136;53.172;8.256;2023-03-30T07:16:26;5.27;;;2.37;;
16063;SDS011;8136;53.172;8.256;2023-03-30T07:18:57;4.03;;;2.20;;
16063;SDS011;8136;53.172;8.256;2023-03-30T07:21:38;4.77;;;2.20;;
16063;SDS011;8136;53.172;8.256;2023-03-30T07:25:15;7.30;;;2.23;;
16063;SDS011;8136;53.172;8.256;2023-03-30T07:27:43;3.60;;;2.10;;
16063;SDS011;8136;53.172;8.256;2023-03-30T07:30:21;3.93;;;2.20;;
16063;SDS011;8136;53.172;8.256;2023-03-30T07:33:03;3.30;;;1.93;;
16063;SDS011;8136;53.172;8.256;2023-03-30T07:35:43;3.30;;;1.90;;
16063;SDS011;8136;53.172;8.256;2023-03-30T07:38:15;4.33;;;2.37;;
16063;SDS011;8136;53.172;8.256;2023-03-30T07:40:44;5.83;;;2.40;;
16063;SDS011;8136;53.172;8.256;2023-03-30T07:43:13;3.23;;;1.93;;
16063;SDS011;8136;53.172;8.256;2023-03-30T07:45:43;3.70;;;2.17;;
16063;SDS011;8136;53.172;8.256;2023-03-30T07:48:10;6.63;;;2.40;;
16063;SDS011;8136;53.172;8.256;2023-03-30T07:50:37;4.07;;;2.20;;
16063;SDS011;8136;53.172;8.256;2023-03-30T07:53:04;6.17;;;2.10;;
16063;SDS011;8136;53.172;8.256;2023-03-30T07:55:33;8.10;;;2.03;;
16063;SDS011;8136;53.172;8.256;2023-03-30T07:58:00;4.83;;;2.57;;
16063;SDS011;8136;53.172;8.256;2023-03-30T08:34:09;5.57;;;2.00;;
16063;SDS011;8136;53.172;8.256;2023-03-30T08:36:38;4.90;;;2.27;;
16063;SDS011;8136;53.172;8.256;2023-03-30T08:39:19;3.37;;;2.03;;
16063;SDS011;8136;53.172;8.256;2023-03-30T08:41:51;5.50;;;1.93;;
16063;SDS011;8136;53.172;8.256;2023-03-30T08:44:29;3.23;;;1.77;;
16063;SDS011;8136;53.172;8.256;2023-03-30T08:47:10;5.20;;;2.23;;
16063;SDS011;8136;53.172;8.256;2023-03-30T09:14:21;5.07;;;1.87;;
16063;SDS011;8136;53.172;8.256;2023-03-30T09:20:32;5.50;;;2.03;;
16063;SDS011;8136;53.172;8.256;2023-03-30T09:23:18;6.67;;;1.97;;
16063;SDS011;8136;53.172;8.256;2023-03-30T09:25:54;3.67;;;1.80;;
16063;SDS011;8136;53.172;8.256;2023-03-30T09:28:31;5.83;;;1.93;;
16063;SDS011;8136;53.172;8.256;2023-03-30T09:31:06;6.10;;;2.00;;
16063;SDS011;8136;53.172;8.256;2023-03-30T09:33:39;4.83;;;1.80;;
16063;SDS011;8136;53.172;8.256;2023-03-30T09:36:12;5.57;;;1.60;;
16063;SDS011;8136;53.172;8.256;2023-03-30T09:38:43;5.90;;;1.90;;
16063;SDS011;8136;53.172;8.256;2023-03-30T09:41:32;8.67;;;2.70;;
16063;SDS011;8136;53.172;8.256;2023-03-30T09:44:19;6.63;;;1.90;;
16063;SDS011;8136;53.172;8.256;2023-03-30T09:47:00;6.50;;;1.93;;
16063;SDS011;8136;53.172;8.256;2023-03-30T09:49:38;6.50;;;1.93;;
16063;SDS011;8136;53.172;8.256;2023-03-30T09:52:06;10.27;;;3.23;;
16063;SDS011;8136;53.172;8.256;2023-03-30T09:54:44;5.83;;;1.90;;
16063;SDS011;8136;53.172;8.256;2023-03-30T09:57:25;4.70;;;1.97;;
16063;SDS011;8136;53.172;8.256;2023-03-30T09:59:59;7.07;;;1.90;;
16063;SDS011;8136;53.172;8.256;2023-03-30T10:02:58;8.53;;;2.10;;
16063;SDS011;8136;53.172;8.256;2023-03-30T10:08:51;5.50;;;2.23;;
16063;SDS011;8136;53.172;8.256;2023-03-30T10:11:20;7.10;;;2.07;;
16063;SDS011;8136;53.172;8.256;2023-03-30T10:13:54;7.77;;;1.80;;
16063;SDS011;8136;53.172;8.256;2023-03-30T10:16:33;5.30;;;1.80;;
16063;SDS011;8136;53.172;8.256;2023-03-30T10:19:13;9.03;;;2.10;;
16063;SDS011;8136;53.172;8.256;2023-03-30T10:21:45;5.87;;;1.77;;
16063;SDS011;8136;53.172;8.256;2023-03-30T10:24:17;6.47;;;1.47;;
16063;SDS011;8136;53.172;8.256;2023-03-30T10:26:48;8.73;;;2.17;;
16063;SDS011;8136;53.172;8.256;2023-03-30T10:29:17;10.43;;;2.93;;
16063;SDS011;8136;53.172;8.256;2023-03-30T10:31:48;14.23;;;2.90;;
16063;SDS011;8136;53.172;8.256;2023-03-30T10:34:27;8.20;;;3.00;;
16063;SDS011;8136;53.172;8.256;2023-03-30T10:37:10;9.43;;;2.87;;
16063;SDS011;8136;53.172;8.256;2023-03-30T10:39:41;13.20;;;3.23;;
16063;SDS011;8136;53.172;8.256;2023-03-30T10:42:13;10.17;;;2.93;;
16063;SDS011;8136;53.172;8.256;2023-03-30T10:55:00;10.47;;;2.67;;
16063;SDS011;8136;53.172;8.256;2023-03-30T10:57:56;11.20;;;2.87;;
16063;SDS011;8136;53.172;8.256;2023-03-30T11:00:40;10.17;;;2.47;;
16063;SDS011;8136;53.172;8.256;2023-03-30T11:03:24;8.70;;;2.03;;
16063;SDS011;8136;53.172;8.256;2023-03-30T11:52:19;7.70;;;1.83;;
16063;SDS011;8136;53.172;8.256;2023-03-30T12:55:03;7.80;;;1.60;;
16063;SDS011;8136;53.172;8.256;2023-03-30T12:57:47;4.37;;;1.70;;
16063;SDS011;8136;53.172;8.256;2023-03-30T13:03:38;7.23;;;1.40;;
16063;SDS011;8136;53.172;8.256;2023-03-30T13:06:17;10.50;;;1.90;;
16063;SDS011;8136;53.172;8.256;2023-03-30T13:08:52;9.80;;;1.97;;
16063;SDS011;8136;53.172;8.256;2023-03-30T13:11:22;8.10;;;2.17;;
16063;SDS011;8136;53.172;8.256;2023-03-30T13:13:50;9.03;;;1.87;;
16063;SDS011;8136;53.172;8.256;2023-03-30T13:19:39;6.57;;;1.53;;
16063;SDS011;8136;53.172;8.256;2023-03-30T13:22:22;6.67;;;1.37;;
16063;SDS011;8136;53.172;8.256;2023-03-30T13:24:53;10.13;;;1.67;;
16063;SDS011;8136;53.172;8.256;2023-03-30T13:27:25;8.10;;;1.53;;
16063;SDS011;8136;53.172;8.256;2023-03-30T13:29:55;8.33;;;1.70;;
16063;SDS011;8136;53.172;8.256;2023-03-30T13:32:34;8.40;;;1.77;;
16063;SDS011;8136;53.172;8.256;2023-03-30T13:35:26;5.43;;;1.67;;
16063;SDS011;8136;53.172;8.256;2023-03-30T13:38:10;8.70;;;2.30;;
16063;SDS011;8136;53.172;8.256;2023-03-30T13:41:02;8.60;;;1.73;;
16063;SDS011;8136;53.172;8.256;2023-03-30T13:43:40;7.50;;;1.77;;
16063;SDS011;8136;53.172;8.256;2023-03-30T13:46:16;5.63;;;1.30;;
16063;SDS011;8136;53.172;8.256;2023-03-30T13:48:58;3.03;;;1.27;;
16063;SDS011;8136;53.172;8.256;2023-03-30T13:51:39;4.30;;;1.30;;
16063;SDS011;8136;53.172;8.256;2023-03-30T13:54:10;8.47;;;1.13;;
16063;SDS011;8136;53.172;8.256;2023-03-30T13:56:40;9.27;;;1.80;;
16063;SDS011;8136;53.172;8.256;2023-03-30T13:59:14;5.20;;;1.60;;
16063;SDS011;8136;53.172;8.256;2023-03-30T14:01:44;4.40;;;1.40;;
16063;SDS011;8136;53.172;8.256;2023-03-30T14:04:14;7.97;;;1.40;;
16063;SDS011;8136;53.172;8.256;2023-03-30T14:06:42;5.80;;;1.50;;
16063;SDS011;8136;53.172;8.256;2023-03-30T14:09:12;4.20;;;1.13;;
16063;SDS011;8136;53.172;8.256;2023-03-30T14:11:41;6.53;;;1.53;;
16063;SDS011;8136;53.172;8.256;2023-03-30T14:14:15;7.53;;;1.50;;
16063;SDS011;8136;53.172;8.256;2023-03-30T14:16:45;6.23;;;1.50;;
16063;SDS011;8136;53.172;8.256;2023-03-30T14:19:16;7.83;;;1.57;;
16063;SDS011;8136;53.172;8.256;2023-03-30T14:21:48;5.97;;;1.40;;
16063;SDS011;8136;53.172;8.256;2023-03-30T14:24:25;6.30;;;1.70;;
16063;SDS011;8136;53.172;8.256;2023-03-30T14:26:56;4.80;;;1.30;;
16063;SDS011;8136;53.172;8.256;2023-03-30T14:29:28;5.60;;;1.43;;
16063;SDS011;8136;53.172;8.256;2023-03-30T14:31:57;6.43;;;1.47;;
16063;SDS011;8136;53.172;8.256;2023-03-30T14:34:26;8.90;;;1.67;;
16063;SDS011;8136;53.172;8.256;2023-03-30T14:36:54;7.60;;;1.53;;
16063;SDS011;8136;53.172;8.256;2023-03-30T14:39:25;8.10;;;1.70;;
16063;SDS011;8136;53.172;8.256;2023-03-30T14:41:52;5.77;;;1.70;;
16063;SDS011;8136;53.172;8.256;2023-03-30T14:44:20;8.47;;;1.70;;
16063;SDS011;8136;53.172;8.256;2023-03-30T14:46:50;7.07;;;1.87;;
16063;SDS011;8136;53.172;8.256;2023-03-30T14:49:19;5.20;;;2.07;;
16063;SDS011;8136;53.172;8.256;2023-03-30T14:51:48;6.30;;;1.67;;
16063;SDS011;8136;53.172;8.256;2023-03-30T14:54:17;8.50;;;1.70;;
16063;SDS011;8136;53.172;8.256;2023-03-30T14:56:49;8.63;;;1.63;;
16063;SDS011;8136;53.172;8.256;2023-03-30T14:59:20;6.83;;;1.60;;
16063;SDS011;8136;53.172;8.256;2023-03-30T15:01:50;8.87;;;1.83;;
16063;SDS011;8136;53.172;8.256;2023-03-30T15:04:19;9.50;;;2.20;;
16063;SDS011;8136;53.172;8.256;2023-03-30T15:06:49;7.13;;;1.50;;
16063;SDS011;8136;53.172;8.256;2023-03-30T15:09:18;10.83;;;1.83;;
16063;SDS011;8136;53.172;8.256;2023-03-30T15:11:46;8.13;;;1.87;;
16063;SDS011;8136;53.172;8.256;2023-03-30T15:14:16;6.70;;;1.40;;
16063;SDS011;8136;53.172;8.256;2023-03-30T15:16:46;9.10;;;1.50;;
16063;SDS011;8136;53.172;8.256;2023-03-30T15:19:19;8.73;;;1.90;;
16063;SDS011;8136;53.172;8.256;2023-03-30T15:21:53;7.30;;;1.87;;
16063;SDS011;8136;53.172;8.256;2023-03-30T15:24:23;8.50;;;2.27;;
16063;SDS011;8136;53.172;8.256;2023-03-30T15:26:53;7.63;;;2.10;;
16063;SDS011;8136;53.172;8.256;2023-03-30T15:29:22;7.10;;;2.10;;
16063;SDS011;8136;53.172;8.256;2023-03-30T15:31:57;10.80;;;2.20;;
16063;SDS011;8136;53.172;8.256;2023-03-30T15:34:26;10.30;;;2.10;;
16063;SDS011;8136;53.172;8.256;2023-03-30T15:36:53;10.17;;;2.20;;
16063;SDS011;8136;53.172;8.256;2023-03-30T15:39:20;11.00;;;2.10;;
16063;SDS011;8136;53.172;8.256;2023-03-30T15:41:50;10.70;;;3.17;;
16063;SDS011;8136;53.172;8.256;2023-03-30T15:44:25;6.37;;;1.80;;
16063;SDS011;8136;53.172;8.256;2023-03-30T15:46:53;11.50;;;2.43;;
16063;SDS011;8136;53.172;8.256;2023-03-30T15:49:21;10.23;;;2.53;;
16063;SDS011;8136;53.172;8.256;2023-03-30T15:51:55;11.33;;;2.70;;
16063;SDS011;8136;53.172;8.256;2023-03-30T15:54:26;11.57;;;2.60;;
16063;SDS011;8136;53.172;8.256;2023-03-30T15:57:00;9.40;;;2.37;;
16063;SDS011;8136;53.172;8.256;2023-03-30T15:59:29;11.47;;;1.93;;
16063;SDS011;8136;53.172;8.256;2023-03-30T16:02:00;7.07;;;2.00;;
16063;SDS011;8136;53.172;8.256;2023-03-30T16:04:29;6.73;;;1.93;;
16063;SDS011;8136;53.172;8.256;2023-03-30T16:06:58;8.97;;;2.50;;
16063;SDS011;8136;53.172;8.256;2023-03-30T16:09:26;11.93;;;2.67;;
16063;SDS011;8136;53.172;8.256;2023-03-30T16:11:52;10.00;;;3.37;;
16063;SDS011;8136;53.172;8.256;2023-03-30T16:14:19;11.97;;;2.77;;
16063;SDS011;8136;53.172;8.256;2023-03-30T16:16:46;9.90;;;2.47;;
16063;SDS011;8136;53.172;8.256;2023-03-30T16:19:14;14.27;;;2.47;;
16063;SDS011;8136;53.172;8.256;2023-03-30T16:21:43;9.47;;;2.40;;
16063;SDS011;8136;53.172;8.256;2023-03-30T16:24:11;7.73;;;1.90;;
16063;SDS011;8136;53.172;8.256;2023-03-30T16:26:38;7.87;;;2.10;;
16063;SDS011;8136;53.172;8.256;2023-03-30T16:29:07;11.17;;;2.77;;
16063;SDS011;8136;53.172;8.256;2023-03-30T16:31:39;12.53;;;2.80;;
16063;SDS011;8136;53.172;8.256;2023-03-30T16:34:06;11.17;;;2.57;;
16063;SDS011;8136;53.172;8.256;2023-03-30T16:36:33;10.20;;;2.40;;
16063;SDS011;8136;53.172;8.256;2023-03-30T16:39:00;17.97;;;2.80;;
16063;SDS011;8136;53.172;8.256;2023-03-30T16:41:30;14.43;;;2.80;;
16063;SDS011;8136;53.172;8.256;2023-03-30T16:43:57;13.60;;;3.30;;
16063;SDS011;8136;53.172;8.256;2023-03-30T16:46:24;10.23;;;2.27;;
16063;SDS011;8136;53.172;8.256;2023-03-30T16:48:51;7.40;;;2.17;;
16063;SDS011;8136;53.172;8.256;2023-03-30T16:51:17;10.17;;;2.43;;
16063;SDS011;8136;53.172;8.256;2023-03-30T16:53:44;13.47;;;2.77;;
16063;SDS011;8136;53.172;8.256;2023-03-30T16:56:12;9.17;;;2.97;;
16063;SDS011;8136;53.172;8.256;2023-03-30T16:58:43;11.03;;;2.40;;
16063;SDS011;8136;53.172;8.256;2023-03-30T17:01:10;8.80;;;2.00;;
16063;SDS011;8136;53.172;8.256;2023-03-30T17:03:39;9.53;;;2.33;;
16063;SDS011;8136;53.172;8.256;2023-03-30T17:06:06;10.97;;;2.93;;
16063;SDS011;8136;53.172;8.256;2023-03-30T17:08:33;10.40;;;2.60;;
16063;SDS011;8136;53.172;8.256;2023-03-30T17:11:00;11.47;;;2.70;;
16063;SDS011;8136;53.172;8.256;2023-03-30T17:13:29;8.17;;;2.03;;
16063;SDS011;8136;53.172;8.256;2023-03-30T17:15:58;10.00;;;2.70;;
16063;SDS011;8136;53.172;8.256;2023-03-30T17:18:27;11.57;;;2.83;;
16063;SDS011;8136;53.172;8.256;2023-03-30T17:20:55;9.87;;;2.30;;
16063;SDS011;8136;53.172;8.256;2023-03-30T17:23:22;11.27;;;2.47;;
16063;SDS011;8136;53.172;8.256;2023-03-30T17:25:51;13.40;;;2.80;;
16063;SDS011;8136;53.172;8.256;2023-03-30T17:28:19;11.70;;;2.73;;
16063;SDS011;8136;53.172;8.256;2023-03-30T17:30:48;10.73;;;3.13;;
16063;SDS011;8136;53.172;8.256;2023-03-30T17:33:17;16.67;;;3.23;;
16063;SDS011;8136;53.172;8.256;2023-03-30T17:35:45;10.80;;;2.73;;
16063;SDS011;8136;53.172;8.256;2023-03-30T17:38:14;12.13;;;2.93;;
16063;SDS011;8136;53.172;8.256;2023-03-30T17:40:42;13.00;;;2.97;;
16063;SDS011;8136;53.172;8.256;2023-03-30T17:43:10;16.67;;;3.30;;
16063;SDS011;8136;53.172;8.256;2023-03-30T17:45:37;11.30;;;3.03;;
16063;SDS011;8136;53.172;8.256;2023-03-30T17:48:04;17.57;;;2.73;;
16063;SDS011;8136;53.172;8.256;2023-03-30T17:50:38;10.93;;;2.73;;
16063;SDS011;8136;53.172;8.256;2023-03-30T17:53:07;16.93;;;3.17;;
16063;SDS011;8136;53.172;8.256;2023-03-30T17:55:35;18.43;;;3.77;;
16063;SDS011;8136;53.172;8.256;2023-03-30T17:58:02;12.47;;;3.13;;
16063;SDS011;8136;53.172;8.256;2023-03-30T18:00:32;16.87;;;3.27;;
16063;SDS011;8136;53.172;8.256;2023-03-30T18:02:59;15.43;;;3.10;;
16063;SDS011;8136;53.172;8.256;2023-03-30T18:05:27;15.97;;;3.50;;
16063;SDS011;8136;53.172;8.256;2023-03-30T18:07:57;18.27;;;3.60;;
16063;SDS011;8136;53.172;8.256;2023-03-30T18:10:25;16.97;;;3.07;;
16063;SDS011;8136;53.172;8.256;2023-03-30T18:12:53;12.33;;;2.57;;
16063;SDS011;8136;53.172;8.256;2023-03-30T18:15:21;14.87;;;2.93;;
16063;SDS011;8136;53.172;8.256;2023-03-30T18:17:51;12.57;;;2.87;;
16063;SDS011;8136;53.172;8.256;2023-03-30T18:20:21;17.27;;;3.53;;
16063;SDS011;8136;53.172;8.256;2023-03-30T18:22:49;19.43;;;3.43;;
16063;SDS011;8136;53.172;8.256;2023-03-30T18:25:18;14.97;;;3.10;;
16063;SDS011;8136;53.172;8.256;2023-03-30T18:27:45;17.80;;;4.23;;
16063;SDS011;8136;53.172;8.256;2023-03-30T18:30:16;15.03;;;3.93;;
16063;SDS011;8136;53.172;8.256;2023-03-30T18:32:45;16.37;;;3.73;;
16063;SDS011;8136;53.172;8.256;2023-03-30T18:35:13;19.77;;;3.87;;
16063;SDS011;8136;53.172;8.256;2023-03-30T18:37:39;15.77;;;3.53;;
16063;SDS011;8136;53.172;8.256;2023-03-30T18:40:10;12.97;;;2.60;;
16063;SDS011;8136;53.172;8.256;2023-03-30T18:42:42;16.37;;;3.20;;
16063;SDS011;8136;53.172;8.256;2023-03-30T18:45:13;19.70;;;3.87;;
16063;SDS011;8136;53.172;8.256;2023-03-30T18:47:42;10.87;;;2.77;;
16063;SDS011;8136;53.172;8.256;2023-03-30T18:50:10;18.03;;;3.77;;
16063;SDS011;8136;53.172;8.256;2023-03-30T18:52:39;13.07;;;3.47;;
16063;SDS011;8136;53.172;8.256;2023-03-30T18:55:06;13.97;;;3.30;;
16063;SDS011;8136;53.172;8.256;2023-03-30T18:57:33;20.27;;;3.50;;
16063;SDS011;8136;53.172;8.256;2023-03-30T19:00:01;14.67;;;3.87;;
16063;SDS011;8136;53.172;8.256;2023-03-30T19:02:32;12.87;;;3.23;;
16063;SDS011;8136;53.172;8.256;2023-03-30T19:04:59;16.07;;;3.53;;
16063;SDS011;8136;53.172;8.256;2023-03-30T19:07:26;12.63;;;3.20;;
16063;SDS011;8136;53.172;8.256;2023-03-30T19:09:52;14.37;;;3.43;;
16063;SDS011;8136;53.172;8.256;2023-03-30T19:12:19;16.90;;;3.23;;
16063;SDS011;8136;53.172;8.256;2023-03-30T19:14:46;14.27;;;3.93;;
16063;SDS011;8136;53.172;8.256;2023-03-30T19:17:14;14.50;;;3.47;;
16063;SDS011;8136;53.172;8.256;2023-03-30T19:19:41;13.13;;;3.23;;
16063;SDS011;8136;53.172;8.256;2023-03-30T19:22:07;17.10;;;3.77;;
16063;SDS011;8136;53.172;8.256;2023-03-30T19:24:35;16.37;;;3.60;;
16063;SDS011;8136;53.172;8.256;2023-03-30T19:27:02;17.77;;;3.20;;
16063;SDS011;8136;53.172;8.256;2023-03-30T19:29:31;18.07;;;3.63;;
16063;SDS011;8136;53.172;8.256;2023-03-30T19:31:58;12.17;;;3.40;;
16063;SDS011;8136;53.172;8.256;2023-03-30T19:34:26;14.27;;;3.80;;
16063;SDS011;8136;53.172;8.256;2023-03-30T19:36:53;16.03;;;3.40;;
16063;SDS011;8136;53.172;8.256;2023-03-30T19:39:20;15.37;;;3.20;;
16063;SDS011;8136;53.172;8.256;2023-03-30T19:41:47;14.03;;;3.13;;
16063;SDS011;8136;53.172;8.256;2023-03-30T19:44:13;16.53;;;3.40;;
16063;SDS011;8136;53.172;8.256;2023-03-30T19:46:40;15.33;;;3.90;;
16063;SDS011;8136;53.172;8.256;2023-03-30T19:49:07;10.97;;;3.23;;
16063;SDS011;8136;53.172;8.256;2023-03-30T19:51:35;16.50;;;4.07;;
16063;SDS011;8136;53.172;8.256;2023-03-30T19:54:02;17.20;;;3.13;;
16063;SDS011;8136;53.172;8.256;2023-03-30T19:56:29;14.40;;;3.10;;
16063;SDS011;8136;53.172;8.256;2023-03-30T19:58:55;19.90;;;3.97;;
16063;SDS011;8136;53.172;8.256;2023-03-30T20:01:22;15.50;;;3.07;;
16063;SDS011;8136;53.172;8.256;2023-03-30T20:03:49;16.30;;;3.50;;
16063;SDS011;8136;53.172;8.256;2023-03-30T20:06:16;20.47;;;3.57;;
16063;SDS011;8136;53.172;8.256;2023-03-30T20:08:44;16.40;;;4.30;;
16063;SDS011;8136;53.172;8.256;2023-03-30T20:11:11;11.37;;;2.83;;
16063;SDS011;8136;53.172;8.256;2023-03-30T20:13:38;22.27;;;3.87;;
16063;SDS011;8136;53.172;8.256;2023-03-30T20:16:09;14.13;;;3.93;;
16063;SDS011;8136;53.172;8.256;2023-03-30T20:18:38;14.70;;;2.87;;
16063;SDS011;8136;53.172;8.256;2023-03-30T20:21:05;17.27;;;3.53;;
16063;SDS011;8136;53.172;8.256;2023-03-30T20:23:31;14.20;;;3.30;;
16063;SDS011;8136;53.172;8.256;2023-03-30T20:26:00;12.83;;;3.83;;
16063;SDS011;8136;53.172;8.256;2023-03-30T20:28:28;19.57;;;3.73;;
16063;SDS011;8136;53.172;8.256;2023-03-30T20:30:55;14.67;;;4.07;;
16063;SDS011;8136;53.172;8.256;2023-03-30T20:33:23;16.93;;;3.43;;
16063;SDS011;8136;53.172;8.256;2023-03-30T20:35:50;14.50;;;3.43;;
16063;SDS011;8136;53.172;8.256;2023-03-30T20:38:18;14.00;;;3.13;;
16063;SDS011;8136;53.172;8.256;2023-03-30T20:40:52;14.77;;;3.33;;
16063;SDS011;8136;53.172;8.256;2023-03-30T20:43:21;9.77;;;3.13;;
16063;SDS011;8136;53.172;8.256;2023-03-30T20:45:50;15.10;;;3.13;;
16063;SDS011;8136;53.172;8.256;2023-03-30T20:48:26;10.47;;;2.67;;
16063;SDS011;8136;53.172;8.256;2023-03-30T20:50:57;18.20;;;3.53;;
16063;SDS011;8136;53.172;8.256;2023-03-30T20:53:25;11.47;;;2.80;;
16063;SDS011;8136;53.172;8.256;2023-03-30T20:55:52;11.70;;;2.70;;
16063;SDS011;8136;53.172;8.256;2023-03-30T20:58:21;12.27;;;2.80;;
16063;SDS011;8136;53.172;8.256;2023-03-30T21:00:48;15.37;;;2.80;;
16063;SDS011;8136;53.172;8.256;2023-03-30T21:03:15;14.40;;;2.77;;
16063;SDS011;8136;53.172;8.256;2023-03-30T21:05:42;9.47;;;2.80;;
16063;SDS011;8136;53.172;8.256;2023-03-30T21:08:09;9.93;;;2.67;;
16063;SDS011;8136;53.172;8.256;2023-03-30T21:10:38;13.80;;;3.67;;
16063;SDS011;8136;53.172;8.256;2023-03-30T21:13:06;14.37;;;2.60;;
16063;SDS011;8136;53.172;8.256;2023-03-30T21:15:34;9.67;;;2.50;;
16063;SDS011;8136;53.172;8.256;2023-03-30T21:18:01;11.87;;;2.90;;
16063;SDS011;8136;53.172;8.256;2023-03-30T21:20:27;11.53;;;2.70;;
16063;SDS011;8136;53.172;8.256;2023-03-30T21:22:55;13.83;;;2.57;;
16063;SDS011;8136;53.172;8.256;2023-03-30T21:25:21;17.07;;;3.40;;
16063;SDS011;8136;53.172;8.256;2023-03-30T21:27:48;9.17;;;2.10;;
16063;SDS011;8136;53.172;8.256;2023-03-30T21:30:15;10.63;;;2.77;;
16063;SDS011;8136;53.172;8.256;2023-03-30T21:32:43;7.80;;;2.27;;
16063;SDS011;8136;53.172;8.256;2023-03-30T21:35:10;13.33;;;2.53;;
16063;SDS011;8136;53.172;8.256;2023-03-30T21:37:36;9.27;;;2.27;;
16063;SDS011;8136;53.172;8.256;2023-03-30T21:40:04;12.93;;;2.77;;
16063;SDS011;8136;53.172;8.256;2023-03-30T21:42:32;12.17;;;2.73;;
16063;SDS011;8136;53.172;8.256;2023-03-30T21:44:59;10.33;;;2.80;;
16063;SDS011;8136;53.172;8.256;2023-03-30T21:47:26;13.67;;;2.63;;
16063;SDS011;8136;53.172;8.256;2023-03-30T21:49:54;10.50;;;2.53;;
16063;SDS011;8136;53.172;8.256;2023-03-30T21:52:20;9.70;;;2.30;;
16063;SDS011;8136;53.172;8.256;2023-03-30T21:54:47;10.37;;;2.10;;
16063;SDS011;8136;53.172;8.256;2023-03-30T21:59:49;11.27;;;2.27;;
16063;SDS011;8136;53.172;8.256;2023-03-30T22:02:18;8.73;;;2.40;;
16063;SDS011;8136;53.172;8.256;2023-03-30T22:04:45;7.97;;;2.00;;
16063;SDS011;8136;53.172;8.256;2023-03-30T22:07:15;8.93;;;2.23;;
16063;SDS011;8136;53.172;8.256;2023-03-30T22:09:42;13.77;;;2.60;;
16063;SDS011;8136;53.172;8.256;2023-03-30T22:12:09;8.23;;;2.23;;
16063;SDS011;8136;53.172;8.256;2023-03-30T22:14:35;15.23;;;2.70;;
16063;SDS011;8136;53.172;8.256;2023-03-30T22:17:02;9.83;;;2.10;;
16063;SDS011;8136;53.172;8.256;2023-03-30T22:19:29;12.23;;;2.77;;
16063;SDS011;8136;53.172;8.256;2023-03-30T22:21:58;9.63;;;2.47;;
16063;SDS011;8136;53.172;8.256;2023-03-30T22:24:26;12.70;;;2.20;;
16063;SDS011;8136;53.172;8.256;2023-03-30T22:26:53;10.37;;;2.17;;
16063;SDS011;8136;53.172;8.256;2023-03-30T22:29:23;8.90;;;2.13;;
16063;SDS011;8136;53.172;8.256;2023-03-30T22:31:50;10.30;;;2.73;;
16063;SDS011;8136;53.172;8.256;2023-03-30T22:34:19;10.30;;;2.50;;
16063;SDS011;8136;53.172;8.256;2023-03-30T22:36:48;9.43;;;2.30;;
16063;SDS011;8136;53.172;8.256;2023-03-30T22:39:14;12.23;;;2.63;;
16063;SDS011;8136;53.172;8.256;2023-03-30T22:41:43;8.23;;;2.50;;
16063;SDS011;8136;53.172;8.256;2023-03-30T22:44:11;14.23;;;2.27;;
16063;SDS011;8136;53.172;8.256;2023-03-30T22:46:39;12.30;;;2.57;;
16063;SDS011;8136;53.172;8.256;2023-03-30T22:49:06;11.00;;;2.60;;
16063;SDS011;8136;53.172;8.256;2023-03-30T22:51:33;12.40;;;2.77;;
16063;SDS011;8136;53.172;8.256;2023-03-30T22:54:02;8.70;;;2.20;;
16063;SDS011;8136;53.172;8.256;2023-03-30T22:56:29;15.17;;;2.40;;
16063;SDS011;8136;53.172;8.256;2023-03-30T22:58:58;11.30;;;2.43;;
16063;SDS011;8136;53.172;8.256;2023-03-30T23:01:25;14.07;;;2.50;;
16063;SDS011;8136;53.172;8.256;2023-03-30T23:03:55;10.20;;;2.57;;
16063;SDS011;8136;53.172;8.256;2023-03-30T23:06:23;7.40;;;2.13;;
16063;SDS011;8136;53.172;8.256;2023-03-30T23:08:50;17.60;;;2.87;;
16063;SDS011;8136;53.172;8.256;2023-03-30T23:11:18;14.47;;;2.87;;
16063;SDS011;8136;53.172;8.256;2023-03-30T23:13:45;12.60;;;2.30;;
16063;SDS011;8136;53.172;8.256;2023-03-30T23:16:14;15.80;;;2.13;;
16063;SDS011;8136;53.172;8.256;2023-03-30T23:18:41;9.10;;;2.60;;
16063;SDS011;8136;53.172;8.256;2023-03-30T23:21:08;10.70;;;3.03;;
16063;SDS011;8136;53.172;8.256;2023-03-30T23:23:35;11.30;;;2.53;;
16063;SDS011;8136;53.172;8.256;2023-03-30T23:26:03;13.83;;;2.57;;
16063;SDS011;8136;53.172;8.256;2023-03-30T23:28:31;11.33;;;2.70;;
16063;SDS011;8136;53.172;8.256;2023-03-30T23:31:04;11.23;;;2.60;;
16063;SDS011;8136;53.172;8.256;2023-03-30T23:33:33;11.53;;;3.13;;
16063;SDS011;8136;53.172;8.256;2023-03-30T23:36:00;14.80;;;2.87;;
16063;SDS011;8136;53.172;8.256;2023-03-30T23:38:26;11.73;;;2.77;;
16063;SDS011;8136;53.172;8.256;2023-03-30T23:40:54;10.53;;;2.93;;
16063;SDS011;8136;53.172;8.256;2023-03-30T23:43:21;9.70;;;2.30;;
16063;SDS011;8136;53.172;8.256;2023-03-30T23:45:48;14.23;;;2.97;;
16063;SDS011;8136;53.172;8.256;2023-03-30T23:48:15;10.90;;;3.30;;
16063;SDS011;8136;53.172;8.256;2023-03-30T23:50:44;13.60;;;2.53;;
16063;SDS011;8136;53.172;8.256;2023-03-30T23:53:11;13.90;;;3.20;;
16063;SDS011;8136;53.172;8.256;2023-03-30T23:55:38;10.23;;;2.57;;
16063;SDS011;8136;53.172;8.256;2023-03-30T23:58:06;15.60;;;2.77;;
